sensor_id;sensor_type;location;lat;lon;timestamp;P1;durP1;ratioP1;P2;durP2;ratioP2
19406;SDS011;9839;53.364;-1.204;2024-02-14T00:02:07;31.73;;;10.13;;
19406;SDS011;9839;53.364;-1.204;2024-02-14T00:04:33;36.03;;;10.97;;
19406;SDS011;9839;53.364;-1.204;2024-02-14T00:06:58;29.70;;;9.40;;
19406;SDS011;9839;53.364;-1.204;2024-02-14T00:09:24;23.03;;;8.30;;
19406;SDS011;9839;53.364;-1.204;2024-02-14T00:11:49;25.63;;;9.60;;
19406;SDS011;9839;53.364;-1.204;2024-02-14T00:14:15;24.53;;;9.10;;
19406;SDS011;9839;53.364;-1.204;2024-02-14T00:16:40;29.77;;;9.73;;
19406;SDS011;9839;53.364;-1.204;2024-02-14T00:19:06;28.43;;;9.50;;
19406;SDS011;9839;53.364;-1.204;2024-02-14T00:21:32;27.50;;;9.80;;
19406;SDS011;9839;53.364;-1.204;2024-02-14T00:23:59;26.03;;;9.03;;
19406;SDS011;9839;53.364;-1.204;2024-02-14T00:26:25;36.23;;;11.20;;
19406;SDS011;9839;53.364;-1.204;2024-02-14T00:28:51;27.43;;;9.10;;
19406;SDS011;9839;53.364;-1.204;2024-02-14T00:31:17;24.30;;;9.50;;
19406;SDS011;9839;53.364;-1.204;2024-02-14T00:33:42;23.97;;;8.57;;
19406;SDS011;9839;53.364;-1.204;2024-02-14T00:36:10;25.27;;;9.27;;
19406;SDS011;9839;53.364;-1.204;2024-02-14T00:38:35;24.47;;;8.63;;
19406;SDS011;9839;53.364;-1.204;2024-02-14T00:41:00;28.03;;;9.77;;
19406;SDS011;9839;53.364;-1.204;2024-02-14T00:43:26;23.67;;;9.27;;
19406;SDS011;9839;53.364;-1.204;2024-02-14T00:45:51;28.43;;;9.80;;
19406;SDS011;9839;53.364;-1.204;2024-02-14T00:48:17;20.50;;;8.93;;
19406;SDS011;9839;53.364;-1.204;2024-02-14T00:50:42;24.73;;;8.97;;
19406;SDS011;9839;53.364;-1.204;2024-02-14T00:53:08;24.07;;;9.50;;
19406;SDS011;9839;53.364;-1.204;2024-02-14T00:55:33;23.10;;;8.97;;
19406;SDS011;9839;53.364;-1.204;2024-02-14T00:57:59;26.17;;;9.90;;
19406;SDS011;9839;53.364;-1.204;2024-02-14T01:00:24;20.20;;;8.33;;
19406;SDS011;9839;53.364;-1.204;2024-02-14T01:02:50;17.73;;;7.77;;
19406;SDS011;9839;53.364;-1.204;2024-02-14T01:05:16;19.43;;;8.40;;
19406;SDS011;9839;53.364;-1.204;2024-02-14T01:07:42;21.50;;;8.23;;
19406;SDS011;9839;53.364;-1.204;2024-02-14T01:10:08;26.43;;;9.40;;
19406;SDS011;9839;53.364;-1.204;2024-02-14T01:12:34;25.10;;;9.80;;
19406;SDS011;9839;53.364;-1.204;2024-02-14T01:15:01;21.57;;;8.70;;
19406;SDS011;9839;53.364;-1.204;2024-02-14T01:17:26;19.37;;;8.80;;
19406;SDS011;9839;53.364;-1.204;2024-02-14T01:19:52;19.23;;;8.17;;
19406;SDS011;9839;53.364;-1.204;2024-02-14T01:22:17;18.00;;;8.60;;
19406;SDS011;9839;53.364;-1.204;2024-02-14T01:24:43;25.50;;;9.10;;
19406;SDS011;9839;53.364;-1.204;2024-02-14T01:27:09;22.07;;;8.80;;
19406;SDS011;9839;53.364;-1.204;2024-02-14T01:29:34;18.13;;;8.30;;
19406;SDS011;9839;53.364;-1.204;2024-02-14T01:32:00;19.63;;;7.60;;
19406;SDS011;9839;53.364;-1.204;2024-02-14T01:34:26;15.13;;;7.63;;
19406;SDS011;9839;53.364;-1.204;2024-02-14T01:36:52;17.57;;;7.67;;
19406;SDS011;9839;53.364;-1.204;2024-02-14T01:39:18;19.20;;;7.63;;
19406;SDS011;9839;53.364;-1.204;2024-02-14T01:41:44;18.47;;;7.57;;
19406;SDS011;9839;53.364;-1.204;2024-02-14T01:44:11;17.90;;;7.47;;
19406;SDS011;9839;53.364;-1.204;2024-02-14T01:46:37;14.53;;;6.80;;
19406;SDS011;9839;53.364;-1.204;2024-02-14T01:49:03;19.40;;;7.00;;
19406;SDS011;9839;53.364;-1.204;2024-02-14T01:51:29;16.33;;;5.60;;
19406;SDS011;9839;53.364;-1.204;2024-02-14T01:53:55;15.10;;;6.43;;
19406;SDS011;9839;53.364;-1.204;2024-02-14T01:56:20;15.47;;;5.70;;
19406;SDS011;9839;53.364;-1.204;2024-02-14T01:58:46;14.40;;;6.40;;
19406;SDS011;9839;53.364;-1.204;2024-02-14T02:01:11;12.87;;;6.57;;
19406;SDS011;9839;53.364;-1.204;2024-02-14T02:03:37;16.63;;;6.27;;
19406;SDS011;9839;53.364;-1.204;2024-02-14T02:06:03;15.17;;;6.23;;
19406;SDS011;9839;53.364;-1.204;2024-02-14T02:08:30;16.63;;;6.20;;
19406;SDS011;9839;53.364;-1.204;2024-02-14T02:10:55;15.87;;;6.53;;
19406;SDS011;9839;53.364;-1.204;2024-02-14T02:13:21;15.57;;;6.17;;
19406;SDS011;9839;53.364;-1.204;2024-02-14T02:15:46;17.90;;;7.10;;
19406;SDS011;9839;53.364;-1.204;2024-02-14T02:18:12;20.33;;;6.57;;
19406;SDS011;9839;53.364;-1.204;2024-02-14T02:20:38;17.17;;;6.43;;
19406;SDS011;9839;53.364;-1.204;2024-02-14T02:23:03;15.93;;;6.60;;
19406;SDS011;9839;53.364;-1.204;2024-02-14T02:25:30;11.33;;;5.83;;
19406;SDS011;9839;53.364;-1.204;2024-02-14T02:27:55;16.83;;;5.87;;
19406;SDS011;9839;53.364;-1.204;2024-02-14T02:30:24;14.00;;;5.40;;
19406;SDS011;9839;53.364;-1.204;2024-02-14T02:32:50;12.50;;;5.23;;
19406;SDS011;9839;53.364;-1.204;2024-02-14T02:35:16;10.10;;;4.20;;
19406;SDS011;9839;53.364;-1.204;2024-02-14T02:37:45;12.80;;;4.17;;
19406;SDS011;9839;53.364;-1.204;2024-02-14T02:40:12;14.53;;;4.30;;
19406;SDS011;9839;53.364;-1.204;2024-02-14T02:42:38;12.10;;;4.47;;
19406;SDS011;9839;53.364;-1.204;2024-02-14T02:45:03;9.83;;;3.93;;
19406;SDS011;9839;53.364;-1.204;2024-02-14T02:47:31;13.23;;;4.03;;
19406;SDS011;9839;53.364;-1.204;2024-02-14T02:49:57;13.77;;;4.10;;
19406;SDS011;9839;53.364;-1.204;2024-02-14T02:52:26;11.97;;;4.27;;
19406;SDS011;9839;53.364;-1.204;2024-02-14T02:54:53;10.87;;;4.53;;
19406;SDS011;9839;53.364;-1.204;2024-02-14T02:57:19;17.57;;;3.70;;
19406;SDS011;9839;53.364;-1.204;2024-02-14T02:59:44;12.23;;;4.20;;
19406;SDS011;9839;53.364;-1.204;2024-02-14T03:02:11;15.20;;;5.17;;
19406;SDS011;9839;53.364;-1.204;2024-02-14T03:04:37;10.47;;;4.50;;
19406;SDS011;9839;53.364;-1.204;2024-02-14T03:07:03;12.00;;;4.73;;
19406;SDS011;9839;53.364;-1.204;2024-02-14T03:09:32;13.00;;;4.40;;
19406;SDS011;9839;53.364;-1.204;2024-02-14T03:11:57;12.83;;;4.43;;
19406;SDS011;9839;53.364;-1.204;2024-02-14T03:14:23;17.37;;;5.60;;
19406;SDS011;9839;53.364;-1.204;2024-02-14T03:16:48;13.63;;;4.50;;
19406;SDS011;9839;53.364;-1.204;2024-02-14T03:19:14;11.40;;;4.53;;
19406;SDS011;9839;53.364;-1.204;2024-02-14T03:21:39;13.53;;;4.27;;
19406;SDS011;9839;53.364;-1.204;2024-02-14T03:24:05;14.17;;;4.20;;
19406;SDS011;9839;53.364;-1.204;2024-02-14T03:26:31;10.90;;;3.97;;
19406;SDS011;9839;53.364;-1.204;2024-02-14T03:29:00;16.83;;;3.70;;
19406;SDS011;9839;53.364;-1.204;2024-02-14T03:31:25;10.10;;;3.50;;
19406;SDS011;9839;53.364;-1.204;2024-02-14T03:33:51;12.50;;;3.70;;
19406;SDS011;9839;53.364;-1.204;2024-02-14T03:36:17;9.63;;;3.40;;
19406;SDS011;9839;53.364;-1.204;2024-02-14T03:38:43;13.40;;;3.07;;
19406;SDS011;9839;53.364;-1.204;2024-02-14T03:41:09;15.43;;;4.50;;
19406;SDS011;9839;53.364;-1.204;2024-02-14T03:43:34;10.37;;;3.20;;
19406;SDS011;9839;53.364;-1.204;2024-02-14T03:46:00;7.23;;;3.13;;
19406;SDS011;9839;53.364;-1.204;2024-02-14T03:48:25;8.17;;;3.47;;
19406;SDS011;9839;53.364;-1.204;2024-02-14T03:50:51;9.07;;;3.67;;
19406;SDS011;9839;53.364;-1.204;2024-02-14T03:53:17;11.73;;;3.60;;
19406;SDS011;9839;53.364;-1.204;2024-02-14T03:55:42;8.20;;;3.57;;
19406;SDS011;9839;53.364;-1.204;2024-02-14T03:58:08;9.20;;;3.73;;
19406;SDS011;9839;53.364;-1.204;2024-02-14T04:00:33;13.07;;;3.90;;
19406;SDS011;9839;53.364;-1.204;2024-02-14T04:03:00;11.27;;;4.60;;
19406;SDS011;9839;53.364;-1.204;2024-02-14T04:05:27;12.63;;;4.03;;
19406;SDS011;9839;53.364;-1.204;2024-02-14T04:07:54;8.43;;;3.20;;
19406;SDS011;9839;53.364;-1.204;2024-02-14T04:10:20;13.03;;;4.10;;
19406;SDS011;9839;53.364;-1.204;2024-02-14T04:12:46;9.47;;;3.67;;
19406;SDS011;9839;53.364;-1.204;2024-02-14T04:15:12;8.70;;;4.10;;
19406;SDS011;9839;53.364;-1.204;2024-02-14T04:17:39;9.50;;;4.17;;
19406;SDS011;9839;53.364;-1.204;2024-02-14T04:20:04;12.90;;;4.30;;
19406;SDS011;9839;53.364;-1.204;2024-02-14T04:22:30;9.90;;;4.17;;
19406;SDS011;9839;53.364;-1.204;2024-02-14T04:24:56;15.40;;;4.43;;
19406;SDS011;9839;53.364;-1.204;2024-02-14T04:27:21;7.93;;;3.73;;
19406;SDS011;9839;53.364;-1.204;2024-02-14T04:29:47;10.57;;;3.93;;
19406;SDS011;9839;53.364;-1.204;2024-02-14T04:32:13;9.00;;;3.50;;
19406;SDS011;9839;53.364;-1.204;2024-02-14T04:34:39;7.97;;;3.20;;
19406;SDS011;9839;53.364;-1.204;2024-02-14T04:37:05;9.90;;;3.23;;
19406;SDS011;9839;53.364;-1.204;2024-02-14T04:39:35;7.40;;;2.70;;
19406;SDS011;9839;53.364;-1.204;2024-02-14T04:42:01;5.93;;;2.73;;
19406;SDS011;9839;53.364;-1.204;2024-02-14T04:44:27;5.50;;;2.57;;
19406;SDS011;9839;53.364;-1.204;2024-02-14T04:46:53;4.90;;;2.90;;
19406;SDS011;9839;53.364;-1.204;2024-02-14T04:49:19;4.23;;;2.50;;
19406;SDS011;9839;53.364;-1.204;2024-02-14T04:51:45;8.30;;;2.93;;
19406;SDS011;9839;53.364;-1.204;2024-02-14T04:54:10;5.07;;;2.77;;
19406;SDS011;9839;53.364;-1.204;2024-02-14T04:56:35;7.63;;;3.00;;
19406;SDS011;9839;53.364;-1.204;2024-02-14T04:59:01;10.37;;;3.77;;
19406;SDS011;9839;53.364;-1.204;2024-02-14T05:01:27;12.23;;;4.00;;
19406;SDS011;9839;53.364;-1.204;2024-02-14T05:03:52;6.70;;;3.70;;
19406;SDS011;9839;53.364;-1.204;2024-02-14T05:06:18;7.70;;;4.40;;
19406;SDS011;9839;53.364;-1.204;2024-02-14T05:08:43;11.73;;;4.37;;
19406;SDS011;9839;53.364;-1.204;2024-02-14T05:11:08;10.33;;;4.23;;
19406;SDS011;9839;53.364;-1.204;2024-02-14T05:13:34;8.17;;;3.43;;
19406;SDS011;9839;53.364;-1.204;2024-02-14T05:16:05;7.53;;;3.77;;
19406;SDS011;9839;53.364;-1.204;2024-02-14T05:18:31;7.57;;;4.10;;
19406;SDS011;9839;53.364;-1.204;2024-02-14T05:20:56;8.80;;;3.70;;
19406;SDS011;9839;53.364;-1.204;2024-02-14T05:23:23;6.73;;;3.17;;
19406;SDS011;9839;53.364;-1.204;2024-02-14T05:25:48;7.63;;;3.37;;
19406;SDS011;9839;53.364;-1.204;2024-02-14T05:28:15;9.77;;;3.20;;
19406;SDS011;9839;53.364;-1.204;2024-02-14T05:30:42;5.83;;;3.23;;
19406;SDS011;9839;53.364;-1.204;2024-02-14T05:33:08;9.37;;;4.17;;
19406;SDS011;9839;53.364;-1.204;2024-02-14T05:35:33;7.93;;;3.70;;
19406;SDS011;9839;53.364;-1.204;2024-02-14T05:37:59;7.90;;;4.43;;
19406;SDS011;9839;53.364;-1.204;2024-02-14T05:40:24;9.07;;;4.70;;
19406;SDS011;9839;53.364;-1.204;2024-02-14T05:42:50;11.63;;;4.37;;
19406;SDS011;9839;53.364;-1.204;2024-02-14T05:45:16;10.80;;;4.27;;
19406;SDS011;9839;53.364;-1.204;2024-02-14T05:47:42;14.30;;;4.70;;
19406;SDS011;9839;53.364;-1.204;2024-02-14T05:50:08;12.10;;;4.67;;
19406;SDS011;9839;53.364;-1.204;2024-02-14T05:52:34;9.33;;;4.90;;
19406;SDS011;9839;53.364;-1.204;2024-02-14T05:54:59;9.13;;;4.30;;
19406;SDS011;9839;53.364;-1.204;2024-02-14T05:57:24;10.53;;;4.53;;
19406;SDS011;9839;53.364;-1.204;2024-02-14T05:59:51;10.93;;;4.93;;
19406;SDS011;9839;53.364;-1.204;2024-02-14T06:02:16;9.30;;;4.50;;
19406;SDS011;9839;53.364;-1.204;2024-02-14T06:04:41;11.33;;;4.70;;
19406;SDS011;9839;53.364;-1.204;2024-02-14T06:07:07;11.20;;;4.30;;
19406;SDS011;9839;53.364;-1.204;2024-02-14T06:09:35;8.30;;;4.47;;
19406;SDS011;9839;53.364;-1.204;2024-02-14T06:12:00;7.00;;;3.97;;
19406;SDS011;9839;53.364;-1.204;2024-02-14T06:14:26;8.93;;;4.27;;
19406;SDS011;9839;53.364;-1.204;2024-02-14T06:16:51;10.07;;;4.70;;
19406;SDS011;9839;53.364;-1.204;2024-02-14T06:19:17;8.70;;;4.40;;
19406;SDS011;9839;53.364;-1.204;2024-02-14T06:21:42;7.27;;;4.30;;
19406;SDS011;9839;53.364;-1.204;2024-02-14T06:24:08;8.80;;;4.63;;
19406;SDS011;9839;53.364;-1.204;2024-02-14T06:26:35;7.63;;;4.67;;
19406;SDS011;9839;53.364;-1.204;2024-02-14T06:29:01;9.63;;;4.20;;
19406;SDS011;9839;53.364;-1.204;2024-02-14T06:31:27;8.10;;;4.23;;
19406;SDS011;9839;53.364;-1.204;2024-02-14T06:33:53;12.03;;;4.37;;
19406;SDS011;9839;53.364;-1.204;2024-02-14T06:36:18;9.13;;;4.27;;
19406;SDS011;9839;53.364;-1.204;2024-02-14T06:38:43;8.60;;;4.13;;
19406;SDS011;9839;53.364;-1.204;2024-02-14T06:41:11;8.73;;;3.87;;
19406;SDS011;9839;53.364;-1.204;2024-02-14T06:43:37;8.83;;;4.00;;
19406;SDS011;9839;53.364;-1.204;2024-02-14T06:46:07;7.20;;;4.03;;
19406;SDS011;9839;53.364;-1.204;2024-02-14T06:48:32;6.37;;;3.90;;
19406;SDS011;9839;53.364;-1.204;2024-02-14T06:50:59;9.90;;;4.33;;
19406;SDS011;9839;53.364;-1.204;2024-02-14T06:53:24;10.93;;;3.53;;
19406;SDS011;9839;53.364;-1.204;2024-02-14T06:55:50;7.90;;;3.87;;
19406;SDS011;9839;53.364;-1.204;2024-02-14T06:58:15;7.03;;;3.87;;
19406;SDS011;9839;53.364;-1.204;2024-02-14T07:00:40;7.00;;;3.47;;
19406;SDS011;9839;53.364;-1.204;2024-02-14T07:03:06;7.93;;;4.23;;
19406;SDS011;9839;53.364;-1.204;2024-02-14T07:05:31;5.80;;;3.80;;
19406;SDS011;9839;53.364;-1.204;2024-02-14T07:07:57;4.80;;;3.10;;
19406;SDS011;9839;53.364;-1.204;2024-02-14T07:10:22;7.63;;;3.80;;
19406;SDS011;9839;53.364;-1.204;2024-02-14T07:12:48;8.87;;;3.93;;
19406;SDS011;9839;53.364;-1.204;2024-02-14T07:15:13;7.23;;;3.30;;
19406;SDS011;9839;53.364;-1.204;2024-02-14T07:17:39;5.77;;;3.63;;
19406;SDS011;9839;53.364;-1.204;2024-02-14T07:20:05;5.23;;;3.40;;
19406;SDS011;9839;53.364;-1.204;2024-02-14T07:22:33;7.07;;;3.23;;
19406;SDS011;9839;53.364;-1.204;2024-02-14T07:24:59;6.50;;;3.43;;
19406;SDS011;9839;53.364;-1.204;2024-02-14T07:27:25;5.00;;;3.33;;
19406;SDS011;9839;53.364;-1.204;2024-02-14T07:29:50;8.10;;;3.50;;
19406;SDS011;9839;53.364;-1.204;2024-02-14T07:32:16;6.93;;;3.87;;
19406;SDS011;9839;53.364;-1.204;2024-02-14T07:34:42;8.60;;;3.70;;
19406;SDS011;9839;53.364;-1.204;2024-02-14T07:37:07;6.53;;;3.10;;
19406;SDS011;9839;53.364;-1.204;2024-02-14T07:39:32;5.83;;;2.90;;
19406;SDS011;9839;53.364;-1.204;2024-02-14T07:42:00;6.07;;;2.80;;
19406;SDS011;9839;53.364;-1.204;2024-02-14T07:44:28;10.23;;;3.17;;
19406;SDS011;9839;53.364;-1.204;2024-02-14T07:46:53;5.67;;;3.30;;
19406;SDS011;9839;53.364;-1.204;2024-02-14T07:49:19;6.63;;;3.40;;
19406;SDS011;9839;53.364;-1.204;2024-02-14T07:51:44;10.53;;;4.03;;
19406;SDS011;9839;53.364;-1.204;2024-02-14T07:54:10;5.50;;;3.43;;
19406;SDS011;9839;53.364;-1.204;2024-02-14T07:56:36;8.87;;;3.60;;
19406;SDS011;9839;53.364;-1.204;2024-02-14T07:59:01;8.43;;;4.00;;
19406;SDS011;9839;53.364;-1.204;2024-02-14T08:01:27;7.17;;;3.60;;
19406;SDS011;9839;53.364;-1.204;2024-02-14T08:03:53;8.20;;;4.10;;
19406;SDS011;9839;53.364;-1.204;2024-02-14T08:06:19;6.03;;;3.43;;
19406;SDS011;9839;53.364;-1.204;2024-02-14T08:08:45;9.37;;;3.73;;
19406;SDS011;9839;53.364;-1.204;2024-02-14T08:11:10;8.83;;;4.43;;
19406;SDS011;9839;53.364;-1.204;2024-02-14T08:13:36;10.57;;;4.20;;
19406;SDS011;9839;53.364;-1.204;2024-02-14T08:16:04;12.77;;;4.50;;
19406;SDS011;9839;53.364;-1.204;2024-02-14T08:18:31;8.63;;;3.77;;
19406;SDS011;9839;53.364;-1.204;2024-02-14T08:20:57;6.77;;;4.40;;
19406;SDS011;9839;53.364;-1.204;2024-02-14T08:23:22;10.47;;;4.40;;
19406;SDS011;9839;53.364;-1.204;2024-02-14T08:25:47;7.30;;;4.33;;
19406;SDS011;9839;53.364;-1.204;2024-02-14T08:28:14;9.23;;;4.40;;
19406;SDS011;9839;53.364;-1.204;2024-02-14T08:30:39;8.77;;;4.60;;
19406;SDS011;9839;53.364;-1.204;2024-02-14T08:33:05;9.95;;;3.95;;
19406;SDS011;9839;53.364;-1.204;2024-02-14T08:35:30;9.07;;;3.63;;
19406;SDS011;9839;53.364;-1.204;2024-02-14T08:37:56;8.75;;;3.33;;
19406;SDS011;9839;53.364;-1.204;2024-02-14T08:40:21;13.93;;;3.35;;
19406;SDS011;9839;53.364;-1.204;2024-02-14T08:42:47;6.57;;;3.50;;
19406;SDS011;9839;53.364;-1.204;2024-02-14T08:45:12;6.80;;;3.10;;
19406;SDS011;9839;53.364;-1.204;2024-02-14T08:47:38;9.67;;;4.10;;
19406;SDS011;9839;53.364;-1.204;2024-02-14T08:50:04;14.37;;;4.33;;
19406;SDS011;9839;53.364;-1.204;2024-02-14T08:52:29;5.82;;;3.00;;
19406;SDS011;9839;53.364;-1.204;2024-02-14T08:54:55;7.93;;;3.40;;
19406;SDS011;9839;53.364;-1.204;2024-02-14T08:57:20;9.70;;;3.60;;
19406;SDS011;9839;53.364;-1.204;2024-02-14T08:59:46;10.63;;;3.20;;
19406;SDS011;9839;53.364;-1.204;2024-02-14T09:02:13;8.27;;;3.70;;
19406;SDS011;9839;53.364;-1.204;2024-02-14T09:04:39;8.47;;;4.13;;
19406;SDS011;9839;53.364;-1.204;2024-02-14T09:07:06;6.23;;;3.80;;
19406;SDS011;9839;53.364;-1.204;2024-02-14T09:09:32;9.60;;;4.20;;
19406;SDS011;9839;53.364;-1.204;2024-02-14T09:11:58;11.23;;;4.63;;
19406;SDS011;9839;53.364;-1.204;2024-02-14T09:14:27;7.35;;;4.03;;
19406;SDS011;9839;53.364;-1.204;2024-02-14T09:16:53;10.73;;;3.93;;
19406;SDS011;9839;53.364;-1.204;2024-02-14T09:19:18;9.05;;;3.70;;
19406;SDS011;9839;53.364;-1.204;2024-02-14T09:21:43;8.40;;;4.30;;
19406;SDS011;9839;53.364;-1.204;2024-02-14T09:24:09;8.45;;;3.70;;
19406;SDS011;9839;53.364;-1.204;2024-02-14T09:26:35;12.00;;;4.50;;
19406;SDS011;9839;53.364;-1.204;2024-02-14T09:29:00;5.97;;;3.75;;
19406;SDS011;9839;53.364;-1.204;2024-02-14T09:31:25;10.55;;;4.35;;
19406;SDS011;9839;53.364;-1.204;2024-02-14T09:33:51;6.60;;;4.05;;
19406;SDS011;9839;53.364;-1.204;2024-02-14T09:36:21;5.88;;;3.55;;
19406;SDS011;9839;53.364;-1.204;2024-02-14T09:38:47;7.15;;;3.80;;
19406;SDS011;9839;53.364;-1.204;2024-02-14T09:41:19;5.75;;;4.22;;
19406;SDS011;9839;53.364;-1.204;2024-02-14T09:43:48;5.43;;;3.47;;
19406;SDS011;9839;53.364;-1.204;2024-02-14T09:46:14;5.60;;;3.75;;
19406;SDS011;9839;53.364;-1.204;2024-02-14T09:48:44;6.15;;;3.40;;
19406;SDS011;9839;53.364;-1.204;2024-02-14T09:51:10;5.95;;;3.55;;
19406;SDS011;9839;53.364;-1.204;2024-02-14T09:53:36;7.30;;;3.03;;
19406;SDS011;9839;53.364;-1.204;2024-02-14T09:56:03;9.73;;;3.17;;
19406;SDS011;9839;53.364;-1.204;2024-02-14T09:58:29;5.88;;;3.33;;
19406;SDS011;9839;53.364;-1.204;2024-02-14T10:00:56;5.40;;;3.38;;
19406;SDS011;9839;53.364;-1.204;2024-02-14T10:03:21;4.55;;;3.03;;
19406;SDS011;9839;53.364;-1.204;2024-02-14T10:05:47;7.70;;;3.35;;
19406;SDS011;9839;53.364;-1.204;2024-02-14T10:08:13;8.10;;;3.20;;
19406;SDS011;9839;53.364;-1.204;2024-02-14T10:10:39;4.45;;;2.67;;
19406;SDS011;9839;53.364;-1.204;2024-02-14T10:13:04;6.55;;;3.03;;
19406;SDS011;9839;53.364;-1.204;2024-02-14T10:15:31;4.97;;;2.92;;
19406;SDS011;9839;53.364;-1.204;2024-02-14T10:17:59;4.43;;;2.53;;
19406;SDS011;9839;53.364;-1.204;2024-02-14T10:20:26;5.13;;;2.97;;
19406;SDS011;9839;53.364;-1.204;2024-02-14T10:22:51;3.83;;;2.38;;
19406;SDS011;9839;53.364;-1.204;2024-02-14T10:25:17;4.15;;;2.95;;
19406;SDS011;9839;53.364;-1.204;2024-02-14T10:27:44;4.78;;;3.03;;
19406;SDS011;9839;53.364;-1.204;2024-02-14T10:30:09;7.85;;;2.80;;
19406;SDS011;9839;53.364;-1.204;2024-02-14T10:32:35;5.53;;;2.73;;
19406;SDS011;9839;53.364;-1.204;2024-02-14T10:35:05;6.97;;;2.77;;
19406;SDS011;9839;53.364;-1.204;2024-02-14T10:37:37;4.30;;;2.75;;
19406;SDS011;9839;53.364;-1.204;2024-02-14T10:40:03;4.72;;;2.38;;
19406;SDS011;9839;53.364;-1.204;2024-02-14T10:42:32;6.28;;;2.60;;
19406;SDS011;9839;53.364;-1.204;2024-02-14T10:44:59;8.90;;;2.58;;
19406;SDS011;9839;53.364;-1.204;2024-02-14T10:47:29;4.70;;;2.55;;
19406;SDS011;9839;53.364;-1.204;2024-02-14T10:49:57;3.83;;;2.95;;
19406;SDS011;9839;53.364;-1.204;2024-02-14T10:52:28;5.00;;;3.08;;
19406;SDS011;9839;53.364;-1.204;2024-02-14T10:54:56;6.40;;;2.97;;
19406;SDS011;9839;53.364;-1.204;2024-02-14T10:57:24;5.93;;;2.90;;
19406;SDS011;9839;53.364;-1.204;2024-02-14T10:59:50;3.72;;;2.47;;
19406;SDS011;9839;53.364;-1.204;2024-02-14T11:02:16;4.17;;;2.77;;
19406;SDS011;9839;53.364;-1.204;2024-02-14T11:04:43;6.13;;;3.20;;
19406;SDS011;9839;53.364;-1.204;2024-02-14T11:07:09;4.05;;;2.80;;
19406;SDS011;9839;53.364;-1.204;2024-02-14T11:09:38;4.82;;;2.67;;
19406;SDS011;9839;53.364;-1.204;2024-02-14T11:12:07;5.53;;;2.63;;
19406;SDS011;9839;53.364;-1.204;2024-02-14T11:14:35;5.25;;;2.50;;
19406;SDS011;9839;53.364;-1.204;2024-02-14T11:17:04;3.47;;;2.10;;
19406;SDS011;9839;53.364;-1.204;2024-02-14T11:19:34;3.40;;;2.42;;
19406;SDS011;9839;53.364;-1.204;2024-02-14T11:22:18;3.40;;;1.98;;
19406;SDS011;9839;53.364;-1.204;2024-02-14T11:24:47;4.97;;;2.33;;
19406;SDS011;9839;53.364;-1.204;2024-02-14T11:27:13;4.53;;;1.98;;
19406;SDS011;9839;53.364;-1.204;2024-02-14T11:29:39;3.33;;;1.92;;
19406;SDS011;9839;53.364;-1.204;2024-02-14T11:32:08;3.00;;;1.80;;
19406;SDS011;9839;53.364;-1.204;2024-02-14T11:34:34;4.22;;;1.90;;
19406;SDS011;9839;53.364;-1.204;2024-02-14T11:37:00;3.85;;;2.10;;
19406;SDS011;9839;53.364;-1.204;2024-02-14T11:39:25;3.72;;;2.17;;
19406;SDS011;9839;53.364;-1.204;2024-02-14T11:41:51;2.42;;;1.73;;
19406;SDS011;9839;53.364;-1.204;2024-02-14T11:44:18;3.65;;;1.85;;
19406;SDS011;9839;53.364;-1.204;2024-02-14T11:46:45;2.92;;;1.70;;
19406;SDS011;9839;53.364;-1.204;2024-02-14T11:49:11;3.60;;;2.15;;
19406;SDS011;9839;53.364;-1.204;2024-02-14T11:51:36;2.13;;;1.80;;
19406;SDS011;9839;53.364;-1.204;2024-02-14T11:54:02;3.13;;;2.03;;
19406;SDS011;9839;53.364;-1.204;2024-02-14T11:56:33;2.88;;;1.73;;
19406;SDS011;9839;53.364;-1.204;2024-02-14T11:59:00;1.88;;;1.65;;
19406;SDS011;9839;53.364;-1.204;2024-02-14T12:01:28;4.72;;;2.00;;
19406;SDS011;9839;53.364;-1.204;2024-02-14T12:03:55;4.30;;;1.85;;
19406;SDS011;9839;53.364;-1.204;2024-02-14T12:06:22;3.65;;;1.77;;
19406;SDS011;9839;53.364;-1.204;2024-02-14T12:08:48;3.75;;;1.73;;
19406;SDS011;9839;53.364;-1.204;2024-02-14T12:11:13;2.35;;;1.80;;
19406;SDS011;9839;53.364;-1.204;2024-02-14T12:13:38;3.35;;;2.15;;
19406;SDS011;9839;53.364;-1.204;2024-02-14T12:16:08;4.53;;;1.58;;
19406;SDS011;9839;53.364;-1.204;2024-02-14T12:18:33;5.15;;;1.70;;
19406;SDS011;9839;53.364;-1.204;2024-02-14T12:21:05;2.95;;;1.20;;
19406;SDS011;9839;53.364;-1.204;2024-02-14T12:23:32;1.30;;;1.17;;
19406;SDS011;9839;53.364;-1.204;2024-02-14T12:26:01;1.38;;;1.20;;
19406;SDS011;9839;53.364;-1.204;2024-02-14T12:28:40;3.80;;;0.90;;
19406;SDS011;9839;53.364;-1.204;2024-02-14T12:31:05;1.77;;;1.02;;
19406;SDS011;9839;53.364;-1.204;2024-02-14T12:33:31;1.50;;;0.70;;
19406;SDS011;9839;53.364;-1.204;2024-02-14T12:35:57;0.88;;;0.80;;
19406;SDS011;9839;53.364;-1.204;2024-02-14T12:38:23;1.33;;;0.73;;
19406;SDS011;9839;53.364;-1.204;2024-02-14T12:40:49;1.52;;;1.10;;
19406;SDS011;9839;53.364;-1.204;2024-02-14T12:43:16;1.30;;;0.57;;
19406;SDS011;9839;53.364;-1.204;2024-02-14T12:45:42;3.58;;;0.80;;
19406;SDS011;9839;53.364;-1.204;2024-02-14T12:48:08;1.38;;;0.60;;
19406;SDS011;9839;53.364;-1.204;2024-02-14T12:50:35;2.13;;;0.80;;
19406;SDS011;9839;53.364;-1.204;2024-02-14T12:53:02;1.33;;;0.75;;
19406;SDS011;9839;53.364;-1.204;2024-02-14T12:55:28;2.17;;;0.60;;
19406;SDS011;9839;53.364;-1.204;2024-02-14T12:57:55;1.30;;;0.70;;
19406;SDS011;9839;53.364;-1.204;2024-02-14T13:00:21;4.38;;;0.63;;
19406;SDS011;9839;53.364;-1.204;2024-02-14T13:02:47;1.73;;;0.80;;
19406;SDS011;9839;53.364;-1.204;2024-02-14T13:05:13;1.25;;;0.80;;
19406;SDS011;9839;53.364;-1.204;2024-02-14T13:07:39;1.75;;;0.63;;
19406;SDS011;9839;53.364;-1.204;2024-02-14T13:10:06;1.42;;;0.73;;
19406;SDS011;9839;53.364;-1.204;2024-02-14T13:12:34;1.73;;;1.10;;
19406;SDS011;9839;53.364;-1.204;2024-02-14T13:15:00;3.17;;;1.10;;
19406;SDS011;9839;53.364;-1.204;2024-02-14T13:17:26;1.15;;;0.65;;
19406;SDS011;9839;53.364;-1.204;2024-02-14T13:19:52;1.42;;;0.60;;
19406;SDS011;9839;53.364;-1.204;2024-02-14T13:22:18;4.55;;;0.60;;
19406;SDS011;9839;53.364;-1.204;2024-02-14T13:24:44;1.05;;;0.60;;
19406;SDS011;9839;53.364;-1.204;2024-02-14T13:27:10;3.38;;;0.60;;
19406;SDS011;9839;53.364;-1.204;2024-02-14T13:29:35;0.80;;;0.60;;
19406;SDS011;9839;53.364;-1.204;2024-02-14T13:32:01;0.98;;;0.47;;
19406;SDS011;9839;53.364;-1.204;2024-02-14T13:34:27;1.48;;;0.95;;
19406;SDS011;9839;53.364;-1.204;2024-02-14T13:36:53;2.45;;;0.68;;
19406;SDS011;9839;53.364;-1.204;2024-02-14T13:39:19;0.68;;;0.45;;
19406;SDS011;9839;53.364;-1.204;2024-02-14T13:41:45;1.00;;;0.45;;
19406;SDS011;9839;53.364;-1.204;2024-02-14T13:44:12;2.05;;;0.60;;
19406;SDS011;9839;53.364;-1.204;2024-02-14T13:46:38;2.30;;;0.50;;
19406;SDS011;9839;53.364;-1.204;2024-02-14T13:49:09;1.35;;;0.43;;
19406;SDS011;9839;53.364;-1.204;2024-02-14T13:51:35;3.45;;;0.80;;
19406;SDS011;9839;53.364;-1.204;2024-02-14T13:54:01;1.40;;;0.60;;
19406;SDS011;9839;53.364;-1.204;2024-02-14T13:56:27;1.33;;;0.50;;
19406;SDS011;9839;53.364;-1.204;2024-02-14T13:58:52;2.28;;;0.70;;
19406;SDS011;9839;53.364;-1.204;2024-02-14T14:01:18;2.10;;;0.47;;
19406;SDS011;9839;53.364;-1.204;2024-02-14T14:03:44;4.07;;;0.73;;
19406;SDS011;9839;53.364;-1.204;2024-02-14T14:06:09;1.85;;;0.75;;
19406;SDS011;9839;53.364;-1.204;2024-02-14T14:08:35;2.92;;;0.63;;
19406;SDS011;9839;53.364;-1.204;2024-02-14T14:11:02;2.15;;;0.60;;
19406;SDS011;9839;53.364;-1.204;2024-02-14T14:13:28;4.97;;;1.70;;
19406;SDS011;9839;53.364;-1.204;2024-02-14T14:15:56;2.08;;;0.75;;
19406;SDS011;9839;53.364;-1.204;2024-02-14T14:18:22;4.28;;;0.77;;
19406;SDS011;9839;53.364;-1.204;2024-02-14T14:20:48;2.78;;;0.60;;
19406;SDS011;9839;53.364;-1.204;2024-02-14T14:23:14;2.35;;;0.85;;
19406;SDS011;9839;53.364;-1.204;2024-02-14T14:25:39;6.20;;;0.75;;
19406;SDS011;9839;53.364;-1.204;2024-02-14T14:28:05;1.63;;;0.77;;
19406;SDS011;9839;53.364;-1.204;2024-02-14T14:30:30;5.00;;;0.80;;
19406;SDS011;9839;53.364;-1.204;2024-02-14T14:32:56;4.00;;;0.95;;
19406;SDS011;9839;53.364;-1.204;2024-02-14T14:35:21;5.25;;;1.17;;
19406;SDS011;9839;53.364;-1.204;2024-02-14T14:37:47;4.22;;;1.23;;